Time;durP1;ratioP1;P1;durP2;ratioP2;P2;SDS_P1;SDS_P2;PMS_P1;PMS_P2;Temp;Humidity;BMP_temperature;BMP_pressure;BME280_temperature;BME280_humidity;BME280_pressure;Samples;Min_cycle;Max_cycle;Signal;HPM_P1;HPM_P2
2022/06/19 00:00:56;;;;;;;4.37;2.30;;;;;;;;;;7331937;19;154350;-18
2022/06/19 00:03:31;;;;;;;3.53;2.70;;;;;;;;;;7331995;19;153532;-17
2022/06/19 00:06:06;;;;;;;4.47;2.40;;;;;;;;;;7331350;19;161852;-18
2022/06/19 00:08:38;;;;;;;4.30;2.70;;;;;;;;;;7331315;19;162491;-17
2022/06/19 00:11:14;;;;;;;5.97;2.97;;;;;;;;;;7329769;19;154456;-18
2022/06/19 00:13:45;;;;;;;5.18;2.40;;;;;;;;;;7331728;19;153507;-17
2022/06/19 00:16:17;;;;;;;5.72;3.17;;;;;;;;;;7330556;19;161856;-18
2022/06/19 00:18:49;;;;;;;4.33;2.57;;;;;;;;;;7330939;19;162525;-17
2022/06/19 00:21:22;;;;;;;4.32;2.42;;;;;;;;;;7329359;19;154066;-17
2022/06/19 00:23:54;;;;;;;3.80;2.45;;;;;;;;;;7330596;19;153492;-17
2022/06/19 00:26:25;;;;;;;2.90;2.47;;;;;;;;;;7330740;19;162090;-17
2022/06/19 00:28:57;;;;;;;3.17;2.50;;;;;;;;;;7329347;19;162723;-17
2022/06/19 00:31:28;;;;;;;3.63;2.43;;;;;;;;;;7328904;19;154229;-17
2022/06/19 00:33:59;;;;;;;4.90;2.97;;;;;;;;;;7329557;19;153626;-17
2022/06/19 00:36:33;;;;;;;3.90;2.10;;;;;;;;;;7330080;19;161640;-17
2022/06/19 00:39:05;;;;;;;3.40;2.63;;;;;;;;;;7330181;19;162575;-17
2022/06/19 00:41:40;;;;;;;4.32;2.40;;;;;;;;;;7330477;19;154152;-17
2022/06/19 00:44:14;;;;;;;4.70;2.17;;;;;;;;;;7330635;19;153512;-16
2022/06/19 00:46:53;;;;;;;3.50;2.00;;;;;;;;;;7331166;19;162126;-19
2022/06/19 00:49:31;;;;;;;4.55;2.58;;;;;;;;;;7330258;19;162459;-19
2022/06/19 00:52:09;;;;;;;5.05;2.20;;;;;;;;;;7327949;19;154067;-18
2022/06/19 00:54:46;;;;;;;4.75;2.80;;;;;;;;;;7330393;19;153719;-19
2022/06/19 00:57:21;;;;;;;3.40;2.10;;;;;;;;;;7330096;19;161685;-18
2022/06/19 00:59:57;;;;;;;3.67;2.22;;;;;;;;;;7329456;19;162475;-18
2022/06/19 01:02:30;;;;;;;3.38;1.90;;;;;;;;;;7329932;19;154422;-18
2022/06/19 01:05:04;;;;;;;3.03;2.22;;;;;;;;;;7328751;19;153746;-18
2022/06/19 01:07:37;;;;;;;2.28;2.08;;;;;;;;;;7329410;19;161900;-18
2022/06/19 01:10:10;;;;;;;3.15;2.20;;;;;;;;;;7329284;19;162541;-18
2022/06/19 01:12:42;;;;;;;4.63;2.47;;;;;;;;;;7329593;19;154077;-18
2022/06/19 01:15:16;;;;;;;4.00;1.73;;;;;;;;;;7329517;19;153561;-15
2022/06/19 01:17:50;;;;;;;3.63;2.38;;;;;;;;;;7326807;19;161906;-16
2022/06/19 01:20:22;;;;;;;3.25;2.42;;;;;;;;;;7328949;19;162435;-15
2022/06/19 01:23:02;;;;;;;2.28;1.95;;;;;;;;;;7329279;19;154105;-16
2022/06/19 01:25:40;;;;;;;2.88;2.03;;;;;;;;;;7331530;19;153612;-16
2022/06/19 01:30:59;;;;;;;2.30;2.10;;;;;;;;;;7327688;19;162615;-15
2022/06/19 01:33:34;;;;;;;4.53;2.42;;;;;;;;;;7333562;19;154079;-16
2022/06/19 01:36:08;;;;;;;2.85;2.28;;;;;;;;;;7336409;19;153558;-15
2022/06/19 01:38:39;;;;;;;3.38;2.42;;;;;;;;;;7335207;19;161856;-16
2022/06/19 01:41:17;;;;;;;3.08;2.05;;;;;;;;;;7335037;19;162738;-16
2022/06/19 01:43:49;;;;;;;3.78;2.25;;;;;;;;;;7334389;19;154319;-15
2022/06/19 01:46:20;;;;;;;2.57;2.20;;;;;;;;;;7335431;19;153553;-15
2022/06/19 01:48:52;;;;;;;3.55;2.13;;;;;;;;;;7334823;19;161995;-16
2022/06/19 01:51:23;;;;;;;2.53;1.80;;;;;;;;;;7334154;19;162423;-18
2022/06/19 01:54:00;;;;;;;2.28;2.08;;;;;;;;;;7335164;19;154078;-18
2022/06/19 01:56:34;;;;;;;2.55;2.35;;;;;;;;;;7335113;19;153529;-16
2022/06/19 01:59:08;;;;;;;1.85;1.70;;;;;;;;;;7334549;19;162032;-16
2022/06/19 02:01:42;;;;;;;2.90;2.05;;;;;;;;;;7334596;19;162593;-16
2022/06/19 02:04:13;;;;;;;2.10;1.85;;;;;;;;;;7334813;19;154128;-16
2022/06/19 02:06:47;;;;;;;2.95;2.10;;;;;;;;;;7334694;19;153531;-16
2022/06/19 02:09:21;;;;;;;3.60;1.85;;;;;;;;;;7334302;19;161878;-16
2022/06/19 02:11:56;;;;;;;3.25;2.10;;;;;;;;;;7333302;19;162555;-16
2022/06/19 02:14:28;;;;;;;3.25;2.22;;;;;;;;;;7334661;19;154222;-16
2022/06/19 02:17:03;;;;;;;2.38;1.98;;;;;;;;;;7333701;19;153534;-16
2022/06/19 02:19:34;;;;;;;2.97;2.28;;;;;;;;;;7334121;19;161877;-16
2022/06/19 02:22:12;;;;;;;2.92;2.15;;;;;;;;;;7332838;19;162466;-22
2022/06/19 02:24:45;;;;;;;2.15;1.88;;;;;;;;;;7334310;19;154057;-16
2022/06/19 02:27:19;;;;;;;3.13;2.22;;;;;;;;;;7334130;19;153529;-16
2022/06/19 02:29:50;;;;;;;2.30;1.90;;;;;;;;;;7333601;19;161824;-16
2022/06/19 02:32:26;;;;;;;2.05;1.73;;;;;;;;;;7332335;19;162540;-16
2022/06/19 02:34:57;;;;;;;2.35;1.70;;;;;;;;;;7332930;19;154089;-16
2022/06/19 02:37:33;;;;;;;3.05;2.00;;;;;;;;;;7334175;19;153629;-16
2022/06/19 02:40:14;;;;;;;2.03;1.60;;;;;;;;;;7333564;19;161881;-16
2022/06/19 02:42:50;;;;;;;2.20;2.00;;;;;;;;;;7333419;19;162679;-16
2022/06/19 02:45:24;;;;;;;3.13;1.95;;;;;;;;;;7332434;19;154165;-16
2022/06/19 02:47:58;;;;;;;2.45;2.10;;;;;;;;;;7333698;19;153833;-16
2022/06/19 02:50:31;;;;;;;3.17;2.15;;;;;;;;;;7333052;19;161797;-16
2022/06/19 02:53:03;;;;;;;2.72;1.90;;;;;;;;;;7331159;19;162382;-16
2022/06/19 02:55:34;;;;;;;2.10;1.90;;;;;;;;;;7333410;19;153968;-16
2022/06/19 02:58:08;;;;;;;2.08;1.73;;;;;;;;;;7332310;19;153561;-15
2022/06/19 03:00:40;;;;;;;1.77;1.65;;;;;;;;;;7332897;19;162139;-16
2022/06/19 03:03:16;;;;;;;3.10;1.98;;;;;;;;;;7332758;19;162368;-16
2022/06/19 03:05:48;;;;;;;2.25;2.05;;;;;;;;;;7332950;19;154290;-16
2022/06/19 03:08:19;;;;;;;3.75;2.15;;;;;;;;;;7332026;19;153542;-16
2022/06/19 03:10:50;;;;;;;2.55;1.60;;;;;;;;;;7332714;19;162128;-15
2022/06/19 03:13:25;;;;;;;2.20;1.95;;;;;;;;;;7329527;19;163252;-16
2022/06/19 03:16:03;;;;;;;3.08;1.70;;;;;;;;;;7332039;19;154092;-17
2022/06/19 03:18:35;;;;;;;2.20;2.00;;;;;;;;;;7332658;19;153648;-15
2022/06/19 03:21:06;;;;;;;2.05;1.85;;;;;;;;;;7332293;19;161800;-15
2022/06/19 03:23:37;;;;;;;5.10;1.80;;;;;;;;;;7332329;19;162581;-16
2022/06/19 03:26:08;;;;;;;2.95;1.75;;;;;;;;;;7332706;19;154312;-16
2022/06/19 03:28:42;;;;;;;2.78;1.95;;;;;;;;;;7332667;19;153598;-16
2022/06/19 03:31:16;;;;;;;3.03;1.75;;;;;;;;;;7332133;19;161801;-16
2022/06/19 03:33:47;;;;;;;1.88;1.58;;;;;;;;;;7332844;19;162388;-18
2022/06/19 03:36:19;;;;;;;4.18;1.58;;;;;;;;;;7332249;19;154063;-18
2022/06/19 03:38:50;;;;;;;2.87;1.70;;;;;;;;;;7332128;19;153838;-16
2022/06/19 03:41:22;;;;;;;3.85;1.75;;;;;;;;;;7334201;19;161949;-16
2022/06/19 03:43:56;;;;;;;2.22;1.70;;;;;;;;;;7331838;19;162318;-16
2022/06/19 03:46:27;;;;;;;3.38;1.83;;;;;;;;;;7331026;19;154086;-16
2022/06/19 03:48:58;;;;;;;3.80;1.85;;;;;;;;;;7331790;19;153776;-16
2022/06/19 03:51:29;;;;;;;5.18;1.77;;;;;;;;;;7331551;19;161885;-17
2022/06/19 03:54:00;;;;;;;3.30;1.98;;;;;;;;;;7329360;19;163049;-16
2022/06/19 03:56:34;;;;;;;2.25;1.80;;;;;;;;;;7329015;19;154334;-16
2022/06/19 03:59:08;;;;;;;4.95;1.63;;;;;;;;;;7331625;19;153741;-16
2022/06/19 04:01:41;;;;;;;5.50;1.75;;;;;;;;;;7331167;19;162054;-18
2022/06/19 04:04:12;;;;;;;;;;;;;;;;;;7330828;19;162519;-16
2022/06/19 04:06:44;;;;;;;4.18;1.50;;;;;;;;;;7331787;19;154404;-16
2022/06/19 04:09:18;;;;;;;1.77;1.50;;;;;;;;;;7331421;19;154174;-16
2022/06/19 04:11:49;;;;;;;1.92;1.45;;;;;;;;;;7331022;19;162027;-17
2022/06/19 04:14:23;;;;;;;4.20;1.65;;;;;;;;;;7331932;19;162710;-15
2022/06/19 04:16:54;;;;;;;4.05;1.70;;;;;;;;;;7333866;19;154333;-16
2022/06/19 04:19:27;;;;;;;2.53;1.35;;;;;;;;;;7334647;19;153517;-16
2022/06/19 04:21:58;;;;;;;2.80;1.60;;;;;;;;;;7334057;19;162226;-16
2022/06/19 04:24:29;;;;;;;1.75;1.48;;;;;;;;;;7334014;19;162518;-16
2022/06/19 04:27:00;;;;;;;2.13;1.50;;;;;;;;;;7334043;19;154001;-15
2022/06/19 04:29:34;;;;;;;2.83;1.50;;;;;;;;;;7334543;19;153587;-16
2022/06/19 04:32:06;;;;;;;2.42;1.65;;;;;;;;;;7333858;19;161789;-16
2022/06/19 04:34:37;;;;;;;4.33;1.50;;;;;;;;;;7330628;19;162432;-16
2022/06/19 04:37:09;;;;;;;3.85;1.60;;;;;;;;;;7334109;19;154133;-16
2022/06/19 04:39:40;;;;;;;1.90;1.73;;;;;;;;;;7333849;19;153539;-16
2022/06/19 04:42:11;;;;;;;2.70;1.50;;;;;;;;;;7333588;19;161860;-18
2022/06/19 04:44:45;;;;;;;1.13;1.10;;;;;;;;;;7333733;19;162144;-16
2022/06/19 04:47:16;;;;;;;2.10;1.17;;;;;;;;;;7333335;19;153948;-16
2022/06/19 04:49:48;;;;;;;3.25;1.50;;;;;;;;;;7333368;19;153514;-16
2022/06/19 04:52:19;;;;;;;2.00;1.30;;;;;;;;;;7333089;19;161805;-16
2022/06/19 04:54:50;;;;;;;4.25;1.40;;;;;;;;;;7330658;19;163641;-16
2022/06/19 04:57:21;;;;;;;3.30;1.55;;;;;;;;;;7332346;19;154481;-18
2022/06/19 04:59:55;;;;;;;2.30;1.00;;;;;;;;;;7333578;19;153446;-17
2022/06/19 05:02:26;;;;;;;2.22;1.33;;;;;;;;;;7332966;19;161801;-16
2022/06/19 05:04:57;;;;;;;8.32;2.08;;;;;;;;;;7332242;19;162458;-16
2022/06/19 05:07:28;;;;;;;3.03;1.40;;;;;;;;;;7332571;19;154057;-16
2022/06/19 05:09:59;;;;;;;1.63;1.10;;;;;;;;;;7332461;19;153849;-16
2022/06/19 05:12:31;;;;;;;1.10;1.00;;;;;;;;;;7332386;19;161792;-16
2022/06/19 05:15:05;;;;;;;3.40;1.20;;;;;;;;;;7329856;19;162408;-16
2022/06/19 05:17:36;;;;;;;6.70;1.42;;;;;;;;;;7330200;19;154057;-16
2022/06/19 05:20:09;;;;;;;1.58;1.30;;;;;;;;;;7331178;19;153533;-16
2022/06/19 05:22:40;;;;;;;2.00;1.33;;;;;;;;;;7332062;19;161940;-16
2022/06/19 05:25:12;;;;;;;2.90;1.50;;;;;;;;;;7332162;19;162577;-16
2022/06/19 05:27:43;;;;;;;3.13;1.40;;;;;;;;;;7331655;19;154186;-16
2022/06/19 05:30:17;;;;;;;3.28;1.52;;;;;;;;;;7332651;19;155878;-16
2022/06/19 05:32:48;;;;;;;2.72;1.30;;;;;;;;;;7331471;19;161888;-16
2022/06/19 05:35:20;;;;;;;2.15;1.55;;;;;;;;;;7328771;19;162373;-17
2022/06/19 05:37:51;;;;;;;3.42;1.13;;;;;;;;;;7332092;19;154076;-16
2022/06/19 05:40:22;;;;;;;2.60;1.38;;;;;;;;;;7330563;19;153614;-16
2022/06/19 05:42:53;;;;;;;5.43;1.60;;;;;;;;;;7331349;19;161972;-16
2022/06/19 05:45:27;;;;;;;6.20;1.60;;;;;;;;;;7331104;19;162419;-16
2022/06/19 05:47:58;;;;;;;5.25;1.67;;;;;;;;;;7331195;19;154003;-16
2022/06/19 05:50:31;;;;;;;1.17;1.00;;;;;;;;;;7331801;19;153561;-16
2022/06/19 05:53:03;;;;;;;3.63;1.38;;;;;;;;;;7330791;19;162113;-18
2022/06/19 05:55:34;;;;;;;1.17;1.05;;;;;;;;;;7328756;19;162629;-17
2022/06/19 05:58:05;;;;;;;3.83;1.60;;;;;;;;;;7331073;19;154001;-16
2022/06/19 06:00:39;;;;;;;4.45;1.30;;;;;;;;;;7331056;19;153530;-16
2022/06/19 06:03:16;;;;;;;2.67;1.42;;;;;;;;;;7331187;19;161603;-16
2022/06/19 06:05:47;;;;;;;1.13;1.02;;;;;;;;;;7330850;19;162346;-16
2022/06/19 06:08:20;;;;;;;2.17;1.17;;;;;;;;;;7330664;19;154053;-16
2022/06/19 06:10:51;;;;;;;2.13;1.30;;;;;;;;;;7331324;19;153909;-16
2022/06/19 06:13:23;;;;;;;3.78;1.25;;;;;;;;;;7330238;19;162011;-16
2022/06/19 06:15:56;;;;;;;2.67;1.38;;;;;;;;;;7328062;19;162502;-16
2022/06/19 06:18:28;;;;;;;2.42;1.20;;;;;;;;;;7328674;19;154242;-16
2022/06/19 06:21:02;;;;;;;4.95;1.30;;;;;;;;;;7336773;19;153778;-17
2022/06/19 06:23:34;;;;;;;1.45;1.10;;;;;;;;;;7337513;19;161771;-16
2022/06/19 06:26:08;;;;;;;4.00;1.30;;;;;;;;;;7337278;19;162427;-17
2022/06/19 06:28:41;;;;;;;3.47;1.55;;;;;;;;;;7337265;19;154251;-17
2022/06/19 06:31:15;;;;;;;2.13;1.20;;;;;;;;;;7336397;19;153900;-16
2022/06/19 06:33:46;;;;;;;3.85;1.10;;;;;;;;;;7336059;19;163308;-17
2022/06/19 06:36:18;;;;;;;0.82;0.80;;;;;;;;;;7333225;19;162326;-16
2022/06/19 06:38:49;;;;;;;2.95;1.45;;;;;;;;;;7336613;19;154065;-17
2022/06/19 06:41:20;;;;;;;2.72;1.25;;;;;;;;;;7335926;19;153476;-16
2022/06/19 06:43:51;;;;;;;3.10;1.38;;;;;;;;;;7335841;19;161946;-17
2022/06/19 06:46:27;;;;;;;6.28;1.23;;;;;;;;;;7335540;19;162690;-16
2022/06/19 06:49:02;;;;;;;2.03;1.08;;;;;;;;;;7334162;19;154069;-18
2022/06/19 06:51:34;;;;;;;3.83;1.25;;;;;;;;;;7336811;19;154237;-17
2022/06/19 06:54:05;;;;;;;7.13;1.33;;;;;;;;;;7336321;19;161900;-16
2022/06/19 06:56:38;;;;;;;2.88;1.10;;;;;;;;;;7333361;19;162280;-17
2022/06/19 06:59:09;;;;;;;1.98;1.20;;;;;;;;;;7335700;19;154274;-16
2022/06/19 07:01:42;;;;;;;2.97;1.30;;;;;;;;;;7335803;19;153509;-16
2022/06/19 07:04:13;;;;;;;6.00;1.45;;;;;;;;;;7336249;19;161946;-17
2022/06/19 07:06:45;;;;;;;3.35;1.40;;;;;;;;;;7336209;19;162517;-17
2022/06/19 07:09:16;;;;;;;4.30;1.33;;;;;;;;;;7336959;19;154059;-16
2022/06/19 07:11:49;;;;;;;2.40;1.23;;;;;;;;;;7336407;19;153836;-16
2022/06/19 07:14:21;;;;;;;2.35;1.15;;;;;;;;;;7335902;19;161961;-16
2022/06/19 07:16:54;;;;;;;4.23;1.40;;;;;;;;;;7331991;19;162416;-17
2022/06/19 07:19:26;;;;;;;3.85;1.90;;;;;;;;;;7334865;19;154149;-16
2022/06/19 07:21:58;;;;;;;3.87;1.30;;;;;;;;;;7335606;19;153673;-16
2022/06/19 07:24:30;;;;;;;4.10;1.55;;;;;;;;;;7335396;19;161988;-17
2022/06/19 07:27:02;;;;;;;2.63;1.15;;;;;;;;;;7335346;19;162357;-16
2022/06/19 07:29:33;;;;;;;2.22;1.13;;;;;;;;;;7335675;19;153793;-17
2022/06/19 07:32:07;;;;;;;2.53;1.40;;;;;;;;;;7334151;19;153474;-16
2022/06/19 07:34:39;;;;;;;3.70;1.58;;;;;;;;;;7335468;19;161973;-17
2022/06/19 07:37:12;;;;;;;8.40;1.80;;;;;;;;;;7335266;19;162370;-17
2022/06/19 07:39:43;;;;;;;3.50;1.30;;;;;;;;;;7335273;19;154057;-16
2022/06/19 07:42:15;;;;;;;5.20;1.50;;;;;;;;;;7335756;19;153864;-17
2022/06/19 07:44:46;;;;;;;3.55;1.40;;;;;;;;;;7333724;19;161938;-17
2022/06/19 07:50:13;;;;;;;3.55;1.70;;;;;;;;;;7334093;19;154205;-19
2022/06/19 07:52:46;;;;;;;5.00;1.33;;;;;;;;;;7334534;19;153668;-18
2022/06/19 07:55:20;;;;;;;6.50;1.40;;;;;;;;;;7334193;19;162059;-18
2022/06/19 07:57:51;;;;;;;7.25;1.88;;;;;;;;;;7334817;19;162441;-18
2022/06/19 08:00:24;;;;;;;8.07;1.98;;;;;;;;;;7334929;19;154016;-18
2022/06/19 08:02:58;;;;;;;5.32;1.48;;;;;;;;;;7335422;19;153810;-18
2022/06/19 08:05:32;;;;;;;2.95;1.50;;;;;;;;;;7332875;19;162061;-18
2022/06/19 08:08:06;;;;;;;8.02;1.30;;;;;;;;;;7334192;19;162776;-18
2022/06/19 08:10:42;;;;;;;5.30;1.55;;;;;;;;;;7335264;19;154008;-17
2022/06/19 08:13:19;;;;;;;3.72;1.52;;;;;;;;;;7333472;19;153626;-16
2022/06/19 08:15:51;;;;;;;5.28;2.17;;;;;;;;;;7332953;19;161937;-18
2022/06/19 08:18:25;;;;;;;5.63;1.60;;;;;;;;;;7331634;19;162751;-17
2022/06/19 08:20:57;;;;;;;3.58;1.40;;;;;;;;;;7334633;19;154149;-18
2022/06/19 08:23:28;;;;;;;4.47;2.05;;;;;;;;;;7334409;19;153666;-18
2022/06/19 08:26:00;;;;;;;2.90;1.88;;;;;;;;;;7333731;19;162291;-17
2022/06/19 08:28:35;;;;;;;4.17;1.60;;;;;;;;;;7334105;19;162445;-18
2022/06/19 08:31:08;;;;;;;4.35;1.75;;;;;;;;;;7334524;19;154153;-19
2022/06/19 08:33:42;;;;;;;11.50;1.63;;;;;;;;;;7333599;19;153602;-18
2022/06/19 08:36:17;;;;;;;3.40;1.83;;;;;;;;;;7331531;19;162030;-18
2022/06/19 08:38:51;;;;;;;3.50;1.90;;;;;;;;;;7333299;19;162412;-18
2022/06/19 08:41:40;;;;;;;3.80;1.70;;;;;;;;;;7333240;19;154243;-17
2022/06/19 08:44:50;;;;;;;3.15;1.63;;;;;;;;;;7332588;19;153789;-16
2022/06/19 08:47:36;;;;;;;3.67;1.70;;;;;;;;;;7332575;19;162174;-16
2022/06/19 08:50:23;;;;;;;1.63;1.52;;;;;;;;;;7333168;19;162559;-18
2022/06/19 08:53:07;;;;;;;5.00;1.98;;;;;;;;;;7333369;19;154103;-17
2022/06/19 08:55:47;;;;;;;2.78;2.15;;;;;;;;;;7332751;19;153844;-16
2022/06/19 08:58:27;;;;;;;4.15;1.90;;;;;;;;;;7332989;19;162042;-18
2022/06/19 09:01:04;;;;;;;1.60;1.50;;;;;;;;;;7332456;19;162355;-17
2022/06/19 09:06:39;;;;;;;2.33;1.73;;;;;;;;;;7333025;19;153490;-17
2022/06/19 09:09:35;;;;;;;1.95;1.80;;;;;;;;;;7332094;19;161928;-18
2022/06/19 09:12:19;;;;;;;3.10;1.95;;;;;;;;;;7333236;19;162372;-17
2022/06/19 09:15:05;;;;;;;5.25;2.15;;;;;;;;;;7328248;19;154070;-18
2022/06/19 09:17:45;;;;;;;5.13;2.60;;;;;;;;;;7327039;19;153533;-17
2022/06/19 09:20:27;;;;;;;9.77;3.00;;;;;;;;;;7328913;19;162181;-18
2022/06/19 09:23:20;;;;;;;10.00;3.17;;;;;;;;;;7327477;19;162570;-18
2022/06/19 09:25:58;;;;;;;8.43;3.38;;;;;;;;;;7331844;19;153992;-18
2022/06/19 09:28:34;;;;;;;5.35;3.17;;;;;;;;;;7331875;19;153498;-18
2022/06/19 09:31:10;;;;;;;5.25;2.70;;;;;;;;;;7331906;19;161836;-18
2022/06/19 09:33:48;;;;;;;4.80;2.90;;;;;;;;;;7331983;19;162443;-18
2022/06/19 09:36:27;;;;;;;3.90;2.42;;;;;;;;;;7331295;19;154015;-17
2022/06/19 09:39:08;;;;;;;6.57;2.75;;;;;;;;;;7331326;19;153585;-17
2022/06/19 09:41:44;;;;;;;6.28;2.67;;;;;;;;;;7330297;19;161891;-17
2022/06/19 09:44:24;;;;;;;9.00;3.20;;;;;;;;;;7331645;19;163184;-18
2022/06/19 09:47:02;;;;;;;4.90;2.25;;;;;;;;;;7331563;19;154203;-17
2022/06/19 09:49:39;;;;;;;6.65;2.40;;;;;;;;;;7331824;19;153576;-18
2022/06/19 09:52:14;;;;;;;7.50;2.50;;;;;;;;;;7327708;19;161919;-17
2022/06/19 09:54:52;;;;;;;6.57;2.30;;;;;;;;;;7329104;19;162447;-17
2022/06/19 09:57:30;;;;;;;5.03;2.13;;;;;;;;;;7334250;19;154105;-17
2022/06/19 10:00:10;;;;;;;6.93;2.60;;;;;;;;;;7337148;19;153597;-18
2022/06/19 10:02:50;;;;;;;6.03;2.13;;;;;;;;;;7334712;19;161766;-18
2022/06/19 10:05:35;;;;;;;4.85;1.88;;;;;;;;;;7334622;19;162328;-18
2022/06/19 10:08:13;;;;;;;8.63;2.17;;;;;;;;;;7334526;19;154059;-17
2022/06/19 10:10:52;;;;;;;4.43;1.73;;;;;;;;;;7334768;19;153615;-17
2022/06/19 10:13:31;;;;;;;2.67;1.77;;;;;;;;;;7334537;19;162079;-17
2022/06/19 10:16:04;;;;;;;3.88;1.67;;;;;;;;;;7333919;19;162766;-17
2022/06/19 10:18:40;;;;;;;2.55;1.77;;;;;;;;;;7332028;19;154117;-17
2022/06/19 10:22:13;;;;;;;6.38;2.00;;;;;;;;;;7334535;19;153665;-17
2022/06/19 10:24:21;;;;;;;3.60;1.95;;;;;;;;;;7333857;19;162238;-18
2022/06/19 10:27:02;;;;;;;3.38;2.20;;;;;;;;;;7334435;19;162467;-17
2022/06/19 10:29:53;;;;;;;4.55;1.88;;;;;;;;;;7333227;19;154043;-17
2022/06/19 10:32:45;;;;;;;5.60;2.03;;;;;;;;;;7336390;19;154012;-17
2022/06/19 10:35:22;;;;;;;6.93;2.47;;;;;;;;;;7332457;19;162220;-18
2022/06/19 10:38:08;;;;;;;5.32;2.70;;;;;;;;;;7330983;19;162939;-18
2022/06/19 10:40:49;;;;;;;6.20;2.08;;;;;;;;;;7332766;19;154190;-17
2022/06/19 10:43:35;;;;;;;4.97;2.65;;;;;;;;;;7334416;19;153677;-17
2022/06/19 10:46:09;;;;;;;6.32;2.40;;;;;;;;;;7330916;19;161959;-17
2022/06/19 10:48:51;;;;;;;6.43;2.05;;;;;;;;;;7332163;19;162595;-17
2022/06/19 10:51:51;;;;;;;4.95;2.25;;;;;;;;;;7332491;19;154169;-17
2022/06/19 10:54:36;;;;;;;7.32;2.28;;;;;;;;;;7332797;19;153542;-16
2022/06/19 10:57:14;;;;;;;4.07;2.47;;;;;;;;;;7331668;19;161971;-18
2022/06/19 10:59:49;;;;;;;8.15;2.55;;;;;;;;;;7331880;19;162546;-17
2022/06/19 11:05:23;;;;;;;3.80;1.90;;;;;;;;;;7331157;19;153536;-18
2022/06/19 11:07:54;;;;;;;6.68;2.20;;;;;;;;;;7331945;19;162456;-16
2022/06/19 11:10:34;;;;;;;5.72;2.47;;;;;;;;;;7332046;19;162393;-17
2022/06/19 11:13:06;;;;;;;5.63;2.38;;;;;;;;;;7332050;19;154076;-18
2022/06/19 11:15:43;;;;;;;4.18;2.17;;;;;;;;;;7331877;19;153560;-17
2022/06/19 11:18:21;;;;;;;6.72;2.50;;;;;;;;;;7329272;19;161804;-17
2022/06/19 11:21:03;;;;;;;3.10;2.15;;;;;;;;;;7335043;19;162636;-18
2022/06/19 11:23:37;;;;;;;2.33;2.10;;;;;;;;;;7331689;19;153977;-17
2022/06/19 11:26:13;;;;;;;9.65;3.47;;;;;;;;;;7331489;19;153498;-16
2022/06/19 11:28:53;;;;;;;8.57;3.58;;;;;;;;;;7331438;19;161965;-18
2022/06/19 11:31:29;;;;;;;8.93;3.25;;;;;;;;;;7331087;19;162373;-17
2022/06/19 11:34:43;;;;;;;6.38;3.40;;;;;;;;;;7331372;19;154872;-17
2022/06/19 11:37:08;;;;;;;9.40;3.88;;;;;;;;;;7331057;19;153585;-18
2022/06/19 11:39:42;;;;;;;9.00;3.95;;;;;;;;;;7328335;19;162121;-17
2022/06/19 11:42:34;;;;;;;9.75;5.05;;;;;;;;;;7334787;19;162438;-17
2022/06/19 11:45:26;;;;;;;203.20;122.40;;;;;;;;;;7331988;19;154112;-17
2022/06/19 11:48:13;;;;;;;168.02;95.90;;;;;;;;;;7331905;19;153793;-18
2022/06/19 11:50:50;;;;;;;137.80;83.43;;;;;;;;;;7331504;19;161895;-17
2022/06/19 11:53:25;;;;;;;136.27;77.78;;;;;;;;;;7335342;19;162351;-18
2022/06/19 11:56:17;;;;;;;128.15;72.03;;;;;;;;;;7331963;19;154031;-18
2022/06/19 11:58:54;;;;;;;116.03;62.90;;;;;;;;;;7330462;19;153462;-17
2022/06/19 12:01:38;;;;;;;99.43;55.78;;;;;;;;;;7334831;19;162088;-17
2022/06/19 12:04:26;;;;;;;80.10;46.13;;;;;;;;;;7331219;19;162163;-17
2022/06/19 12:07:00;;;;;;;72.50;42.17;;;;;;;;;;7331560;19;153911;-17
2022/06/19 12:09:38;;;;;;;76.70;41.92;;;;;;;;;;7331427;19;153686;-18
2022/06/19 12:12:18;;;;;;;75.35;41.72;;;;;;;;;;7331166;19;162519;-17
2022/06/19 12:15:01;;;;;;;75.63;39.92;;;;;;;;;;7330754;19;162465;-18
2022/06/19 12:17:41;;;;;;;69.65;38.65;;;;;;;;;;7326091;19;154008;-18
2022/06/19 12:20:28;;;;;;;61.85;34.35;;;;;;;;;;7328373;19;153750;-17
2022/06/19 12:23:10;;;;;;;66.38;35.28;;;;;;;;;;7329046;19;133643;-18
2022/06/19 12:25:47;;;;;;;58.85;30.23;;;;;;;;;;7330350;19;162352;-18
2022/06/19 12:28:25;;;;;;;49.47;29.90;;;;;;;;;;7330616;19;154173;-18
2022/06/19 12:31:00;;;;;;;49.42;28.02;;;;;;;;;;7330550;19;153604;-17
2022/06/19 12:33:40;;;;;;;49.60;29.13;;;;;;;;;;7330037;19;162297;-18
2022/06/19 12:36:18;;;;;;;46.85;27.10;;;;;;;;;;7330309;19;162533;-17
2022/06/19 12:38:51;;;;;;;40.58;23.10;;;;;;;;;;7329708;19;154437;-17
2022/06/19 12:41:32;;;;;;;44.03;22.95;;;;;;;;;;7330753;19;153599;-17
2022/06/19 12:44:25;;;;;;;40.63;21.85;;;;;;;;;;7329006;19;161875;-17
2022/06/19 12:47:06;;;;;;;42.90;24.75;;;;;;;;;;7331552;19;163138;-17
2022/06/19 12:50:02;;;;;;;46.65;24.58;;;;;;;;;;7329054;19;155542;-17
2022/06/19 12:52:44;;;;;;;47.75;24.05;;;;;;;;;;7332604;19;153715;-17
2022/06/19 12:55:41;;;;;;;48.28;26.10;;;;;;;;;;7328418;19;162047;-17
2022/06/19 12:58:34;;;;;;;45.90;24.98;;;;;;;;;;7328597;19;163097;-17
2022/06/19 13:01:12;;;;;;;45.35;24.50;;;;;;;;;;7329047;19;154010;-17
2022/06/19 13:04:06;;;;;;;48.40;25.08;;;;;;;;;;7330818;19;153606;-17
2022/06/19 13:06:54;;;;;;;41.17;23.88;;;;;;;;;;7327184;19;161874;-17
2022/06/19 13:09:53;;;;;;;40.90;23.95;;;;;;;;;;7328519;19;162546;-17
2022/06/19 13:12:38;;;;;;;40.88;23.25;;;;;;;;;;7326999;19;154372;-16
2022/06/19 13:15:33;;;;;;;37.67;22.02;;;;;;;;;;7327140;19;153685;-17
2022/06/19 13:18:15;;;;;;;43.83;23.10;;;;;;;;;;7325706;19;161832;-17
2022/06/19 13:20:55;;;;;;;38.95;22.58;;;;;;;;;;7326769;19;162639;-19
2022/06/19 13:23:31;;;;;;;41.63;23.30;;;;;;;;;;7328688;19;154279;-17
2022/06/19 13:29:23;;;;;;;34.55;21.15;;;;;;;;;;7329896;19;161828;-17
2022/06/19 13:32:09;;;;;;;32.80;20.77;;;;;;;;;;7334785;19;162726;-17
2022/06/19 13:34:55;;;;;;;40.80;21.77;;;;;;;;;;7335089;19;153976;-18
2022/06/19 13:37:45;;;;;;;36.30;21.52;;;;;;;;;;7334925;19;153615;-23
2022/06/19 13:40:23;;;;;;;36.88;20.65;;;;;;;;;;7335218;19;162013;-17
2022/06/19 13:43:15;;;;;;;37.78;20.88;;;;;;;;;;7334887;19;162580;-17
2022/06/19 13:46:02;;;;;;;35.72;21.40;;;;;;;;;;7335530;19;154208;-18
2022/06/19 13:48:39;;;;;;;31.40;20.55;;;;;;;;;;7336360;19;154274;-16
2022/06/19 13:51:21;;;;;;;36.17;19.63;;;;;;;;;;7335183;19;161807;-17
2022/06/19 13:53:57;;;;;;;32.75;20.60;;;;;;;;;;7334746;19;162303;-17
2022/06/19 13:56:38;;;;;;;32.17;18.67;;;;;;;;;;7335545;19;154087;-17
2022/06/19 13:59:34;;;;;;;19.42;10.57;;;;;;;;;;7334976;19;153568;-17
2022/06/19 14:02:12;;;;;;;18.75;9.77;;;;;;;;;;7334866;19;163345;-17
2022/06/19 14:05:03;;;;;;;12.77;8.50;;;;;;;;;;7334185;19;162368;-18
2022/06/19 14:07:49;;;;;;;14.05;8.70;;;;;;;;;;7334431;19;154009;-17
2022/06/19 14:10:42;;;;;;;14.63;7.60;;;;;;;;;;7334637;19;153495;-18
2022/06/19 14:13:24;;;;;;;10.70;5.68;;;;;;;;;;7334502;19;161921;-17
2022/06/19 14:16:22;;;;;;;11.48;6.05;;;;;;;;;;7334615;19;162450;-18
2022/06/19 14:19:02;;;;;;;9.95;4.93;;;;;;;;;;7338342;19;154611;-18
2022/06/19 14:21:53;;;;;;;10.45;4.72;;;;;;;;;;7336181;19;153711;-18
2022/06/19 14:24:35;;;;;;;7.40;4.60;;;;;;;;;;7334983;19;161970;-18
2022/06/19 14:27:19;;;;;;;8.40;4.50;;;;;;;;;;7335819;19;162759;-17
2022/06/19 14:29:56;;;;;;;11.07;3.65;;;;;;;;;;7336491;19;154281;-18
2022/06/19 14:32:49;;;;;;;6.32;3.58;;;;;;;;;;7336951;19;153806;-18
2022/06/19 14:35:38;;;;;;;;;;;;;;;;;;7337412;19;161944;-17
2022/06/19 14:38:25;;;;;;;5.43;3.22;;;;;;;;;;7335022;19;162306;-18
2022/06/19 14:41:03;;;;;;;8.15;3.00;;;;;;;;;;7332643;19;154104;-18
2022/06/19 14:43:52;;;;;;;9.93;2.53;;;;;;;;;;7334409;19;153611;-17
2022/06/19 14:47:09;;;;;;;8.02;2.38;;;;;;;;;;7334605;19;161890;-17
2022/06/19 14:49:57;;;;;;;5.15;2.50;;;;;;;;;;7332684;19;162436;-18
2022/06/19 14:52:46;;;;;;;5.90;2.20;;;;;;;;;;7332401;19;154066;-18
2022/06/19 14:55:37;;;;;;;6.07;2.50;;;;;;;;;;7332455;19;153418;-17
2022/06/19 14:58:17;;;;;;;5.90;2.40;;;;;;;;;;7331706;19;161827;-17
2022/06/19 15:00:54;;;;;;;4.45;2.00;;;;;;;;;;7330361;19;162408;-16
2022/06/19 15:03:43;;;;;;;4.07;2.30;;;;;;;;;;7332349;19;153771;-17
2022/06/19 15:06:25;;;;;;;5.43;2.35;;;;;;;;;;7331761;19;153634;-17
2022/06/19 15:09:02;;;;;;;5.90;2.10;;;;;;;;;;7331520;19;161981;-17
2022/06/19 15:11:36;;;;;;;4.95;2.38;;;;;;;;;;7331449;19;162334;-17
2022/06/19 15:14:24;;;;;;;4.93;2.15;;;;;;;;;;7331857;19;154013;-17
2022/06/19 15:16:58;;;;;;;3.78;1.92;;;;;;;;;;7330869;19;153483;-17
2022/06/19 15:19:42;;;;;;;5.35;2.50;;;;;;;;;;7331373;19;162137;-16
2022/06/19 15:22:39;;;;;;;5.82;2.60;;;;;;;;;;7328879;19;164148;-17
2022/06/19 15:25:24;;;;;;;4.47;2.58;;;;;;;;;;7334251;19;154409;-17
2022/06/19 15:27:56;;;;;;;4.47;2.25;;;;;;;;;;7331428;19;153510;-16
2022/06/19 15:30:37;;;;;;;6.60;2.15;;;;;;;;;;7331036;19;161943;-17
2022/06/19 15:33:34;;;;;;;5.10;2.30;;;;;;;;;;7333873;19;162760;-16
2022/06/19 15:36:09;;;;;;;7.93;2.58;;;;;;;;;;7331010;19;154232;-17
2022/06/19 15:39:19;;;;;;;5.68;2.05;;;;;;;;;;7333956;19;153801;-16